Morshansk, Russia
Current Conditions -  °F | °C
As of 4:30 AM on Sunday 26 Oct 2014 (Local Time) from UUOO Reporting Station
Clear Clear  
Wind Chill: 10°   Ceiling: Unl
Heat Index: 10°   Visibility: 6mi
Dew Point:   Wind: 2mph
Humidity: 85%   Direction: NA
Pressure: 30.68"   Gusts: NA
Location:  53.45°N, 41.81°E
Report Text: UUOO 260130Z VRB01MPS CAVOK M12/M14 Q1039 NOSIG RMK 30090070
Loading
Personal Weather Stations






























Interactive Weather Map
Tropical Storm Tracking
New forecast layout! Learn more

10-Day Weather Forecast

Advertisements
Track Severe Weather on mobile